Terminal Aerodrome Forecast
Issued by NWS Dodge City, KS

Current Version | Previous Version | Text Only | Print | Product List | Glossary On
Versions: 1 2 3 4 5 6 7 8 9 10 11 12 13 14 15 16 17 18 19 20 21 22 23 24 25 26 27 28 29 30 31 32 33 34 35 36 37
965
FTUS43 KDDC 281344 AAA
TAFDDC
TAF AMD
KDDC 281344Z 2814/0112 32009KT P6SM BKN250
     FM282200 36014G22KT P6SM BKN150
     FM010100 36023G32KT P6SM VCSH OVC090
     FM010400 34014G23KT P6SM VCSH OVC090
     FM010900 29008KT P6SM VCSH BKN100=

USA.gov is the U.S. government's official web portal to all federal, state and local government web resources and services.